Time;durP1;ratioP1;P1;durP2;ratioP2;P2;SDS_P1;SDS_P2;PMS_P1;PMS_P2;Temp;Humidity;BMP_temperature;BMP_pressure;BME280_temperature;BME280_humidity;BME280_pressure;Samples;Min_cycle;Max_cycle;Signal;HPM_P1;HPM_P2
2023/10/01 00:00:30;;;;;;;7.38;4.15;;;;;;;;;;5046977;28;20046;-72
2023/10/01 00:02:57;;;;;;;7.00;4.20;;;;;;;;;;5043387;28;20052;-72
2023/10/01 00:05:25;;;;;;;6.65;3.58;;;;;;;;;;5048734;28;20048;-72
2023/10/01 00:07:53;;;;;;;5.82;3.67;;;;;;;;;;5048179;28;20556;-72
2023/10/01 00:10:21;;;;;;;6.18;3.90;;;;;;;;;;5046132;28;20047;-72
2023/10/01 00:12:49;;;;;;;7.53;4.07;;;;;;;;;;5048663;28;20106;-72
2023/10/01 00:15:18;;;;;;;6.68;3.80;;;;;;;;;;5047672;28;20049;-73
2023/10/01 00:17:45;;;;;;;9.68;4.22;;;;;;;;;;5051579;28;20087;-73
2023/10/01 00:20:16;;;;;;;5.07;3.47;;;;;;;;;;5054721;28;20049;-72
2023/10/01 00:22:43;;;;;;;6.35;3.70;;;;;;;;;;5053783;28;20114;-72
2023/10/01 00:25:11;;;;;;;6.20;3.80;;;;;;;;;;5045475;28;20478;-72
2023/10/01 00:27:38;;;;;;;6.38;3.78;;;;;;;;;;5045336;28;20107;-72
2023/10/01 00:30:08;;;;;;;6.15;3.65;;;;;;;;;;5057200;28;20139;-72
2023/10/01 00:32:35;;;;;;;5.53;3.38;;;;;;;;;;5046444;28;20055;-73
2023/10/01 00:35:05;;;;;;;7.18;4.05;;;;;;;;;;5046952;28;20068;-72
2023/10/01 00:37:33;;;;;;;6.55;3.88;;;;;;;;;;5052580;28;20554;-72
2023/10/01 00:40:00;;;;;;;7.28;3.85;;;;;;;;;;5048428;28;20053;-72
2023/10/01 00:42:28;;;;;;;6.35;3.78;;;;;;;;;;5045294;28;20055;-72
2023/10/01 00:44:57;;;;;;;7.97;4.78;;;;;;;;;;5045771;28;20457;-72
2023/10/01 00:47:26;;;;;;;6.53;3.80;;;;;;;;;;5048940;28;20048;-72
2023/10/01 00:49:54;;;;;;;6.00;3.42;;;;;;;;;;5047849;28;20483;-72
2023/10/01 00:52:23;;;;;;;5.40;3.75;;;;;;;;;;5048101;28;20413;-72
2023/10/01 00:54:51;;;;;;;9.23;4.18;;;;;;;;;;5058364;28;20045;-71
2023/10/01 00:57:18;;;;;;;7.22;3.85;;;;;;;;;;5047535;28;20489;-71
2023/10/01 00:59:46;;;;;;;6.65;3.80;;;;;;;;;;5043303;28;20049;-72
2023/10/01 01:02:15;;;;;;;6.63;3.88;;;;;;;;;;5056591;28;20436;-71
2023/10/01 01:04:45;;;;;;;7.07;4.57;;;;;;;;;;5052868;28;20045;-72
2023/10/01 01:07:16;;;;;;;6.15;3.50;;;;;;;;;;5042846;28;20456;-72
2023/10/01 01:09:46;;;;;;;6.50;3.60;;;;;;;;;;5052204;28;20049;-72
2023/10/01 01:12:13;;;;;;;9.07;4.03;;;;;;;;;;5041128;28;20280;-73
2023/10/01 01:14:44;;;;;;;6.93;4.22;;;;;;;;;;5053458;28;20053;-72
2023/10/01 01:17:12;;;;;;;7.43;4.13;;;;;;;;;;5045218;28;20056;-71
2023/10/01 01:19:39;;;;;;;11.45;4.88;;;;;;;;;;5041724;28;20052;-72
2023/10/01 01:22:09;;;;;;;10.80;4.53;;;;;;;;;;5045856;28;20232;-72
2023/10/01 01:24:37;;;;;;;9.63;4.78;;;;;;;;;;5049003;28;20107;-73
2023/10/01 01:27:06;;;;;;;12.30;5.38;;;;;;;;;;5043095;28;20045;-72
2023/10/01 01:29:40;;;;;;;16.13;5.65;;;;;;;;;;5043754;28;20444;-71
2023/10/01 01:32:13;;;;;;;17.05;5.90;;;;;;;;;;5046930;28;20053;-71
2023/10/01 01:34:40;;;;;;;;;;;;;;;;;;5050589;28;20056;-72
2023/10/01 01:37:08;;;;;;;15.85;6.05;;;;;;;;;;5049261;28;19920;-71
2023/10/01 01:39:45;;;;;;;16.23;5.95;;;;;;;;;;5059520;28;20041;-72
2023/10/01 01:42:12;;;;;;;17.52;6.55;;;;;;;;;;5048222;28;20050;-71
2023/10/01 01:44:39;;;;;;;16.67;6.75;;;;;;;;;;5042722;28;20417;-71
2023/10/01 01:47:07;;;;;;;13.85;6.75;;;;;;;;;;5047990;28;20561;-71
2023/10/01 01:49:34;;;;;;;16.33;7.10;;;;;;;;;;5045436;28;20052;-72
2023/10/01 01:52:03;;;;;;;14.75;6.07;;;;;;;;;;5046954;28;20051;-71
2023/10/01 01:54:31;;;;;;;18.58;7.00;;;;;;;;;;5048231;28;20131;-71
2023/10/01 01:57:00;;;;;;;19.02;6.85;;;;;;;;;;5045247;28;20128;-72
2023/10/01 01:59:28;;;;;;;15.82;6.65;;;;;;;;;;5043747;28;20049;-72
2023/10/01 02:01:56;;;;;;;14.63;6.82;;;;;;;;;;5044662;28;20106;-72
2023/10/01 02:04:23;;;;;;;14.02;6.68;;;;;;;;;;5043000;28;20049;-73
2023/10/01 02:06:51;;;;;;;16.63;7.28;;;;;;;;;;5041385;28;20459;-72
2023/10/01 02:09:19;;;;;;;13.55;6.68;;;;;;;;;;5050779;28;20108;-71
2023/10/01 02:11:50;;;;;;;14.30;6.60;;;;;;;;;;5044936;28;20566;-71
2023/10/01 02:14:35;;;;;;;13.40;6.47;;;;;;;;;;5044410;28;20060;-72
2023/10/01 02:17:13;;;;;;;11.65;6.22;;;;;;;;;;5048541;28;20045;-72
2023/10/01 02:19:40;;;;;;;9.93;5.57;;;;;;;;;;5045230;28;20049;-71
2023/10/01 02:22:08;;;;;;;12.80;6.80;;;;;;;;;;5045402;28;20439;-71
2023/10/01 02:24:44;;;;;;;13.98;6.90;;;;;;;;;;5050771;28;20045;-72
2023/10/01 02:27:11;;;;;;;12.95;6.95;;;;;;;;;;5048366;28;20460;-72
2023/10/01 02:30:11;;;;;;;12.05;6.22;;;;;;;;;;5049504;28;20045;-72
2023/10/01 02:32:33;;;;;;;11.90;5.60;;;;;;;;;;5049321;28;20342;-71
2023/10/01 02:34:58;;;;;;;10.77;6.20;;;;;;;;;;5054200;28;20045;-72
2023/10/01 02:37:29;;;;;;;10.00;6.22;;;;;;;;;;5054580;28;20055;-72
2023/10/01 02:39:56;;;;;;;12.45;6.65;;;;;;;;;;5051434;28;20114;-72
2023/10/01 02:42:26;;;;;;;16.35;6.55;;;;;;;;;;5049793;28;20053;-71
2023/10/01 02:44:53;;;;;;;17.73;6.18;;;;;;;;;;5047697;28;20045;-72
2023/10/01 02:47:23;;;;;;;11.13;6.25;;;;;;;;;;5046810;28;20091;-71
2023/10/01 02:49:52;;;;;;;16.42;5.50;;;;;;;;;;5042819;28;20459;-72
2023/10/01 02:52:21;;;;;;;9.68;5.30;;;;;;;;;;5055604;28;20053;-71
2023/10/01 02:54:47;;;;;;;14.07;5.72;;;;;;;;;;5043688;28;20052;-72
2023/10/01 02:57:23;;;;;;;13.35;6.88;;;;;;;;;;5047952;28;20053;-71
2023/10/01 03:02:37;;;;;;;13.88;6.35;;;;;;;;;;5046728;28;20049;-72
2023/10/01 03:05:06;;;;;;;11.57;5.97;;;;;;;;;;5039548;28;20124;-72
2023/10/01 03:07:38;;;;;;;13.35;5.53;;;;;;;;;;5048934;28;20096;-72
2023/10/01 03:10:12;;;;;;;14.95;5.75;;;;;;;;;;5047372;28;20052;-72
2023/10/01 03:12:40;;;;;;;12.93;6.15;;;;;;;;;;5051864;28;20420;-72
2023/10/01 03:15:18;;;;;;;13.27;6.50;;;;;;;;;;5043237;28;20045;-71
2023/10/01 03:17:56;;;;;;;17.98;6.45;;;;;;;;;;5040085;28;20055;-72
2023/10/01 03:23:04;;;;;;;9.05;6.18;;;;;;;;;;5045397;28;20045;-71
2023/10/01 03:25:40;;;;;;;16.42;6.28;;;;;;;;;;5051692;28;20049;-72
2023/10/01 03:28:07;;;;;;;14.20;5.93;;;;;;;;;;5045203;28;20072;-72
2023/10/01 03:30:34;;;;;;;10.85;5.38;;;;;;;;;;5046754;28;20052;-72
2023/10/01 03:33:07;;;;;;;9.77;5.53;;;;;;;;;;5048739;28;20056;-71
2023/10/01 03:35:34;;;;;;;10.93;5.40;;;;;;;;;;5043336;28;20132;-71
2023/10/01 03:38:10;;;;;;;14.10;7.03;;;;;;;;;;5044867;28;20076;-72
2023/10/01 03:40:57;;;;;;;11.95;5.40;;;;;;;;;;5050757;28;20084;-72
2023/10/01 03:43:31;;;;;;;12.75;5.80;;;;;;;;;;5050201;28;20055;-72
2023/10/01 03:46:06;;;;;;;10.50;5.75;;;;;;;;;;5047694;28;20049;-71
2023/10/01 03:48:57;;;;;;;8.00;5.43;;;;;;;;;;5045474;28;20049;-73
2023/10/01 03:51:28;;;;;;;10.73;5.75;;;;;;;;;;5045343;28;20056;-71
2023/10/01 03:54:00;;;;;;;16.48;5.30;;;;;;;;;;5052878;28;20049;-72
2023/10/01 03:56:30;;;;;;;15.80;5.38;;;;;;;;;;5050212;28;20053;-72
2023/10/01 03:58:57;;;;;;;10.07;5.30;;;;;;;;;;5049587;28;20075;-72
2023/10/01 04:01:33;;;;;;;10.52;4.93;;;;;;;;;;5049858;28;20042;-72
2023/10/01 04:04:01;;;;;;;14.27;5.63;;;;;;;;;;5047330;28;20082;-71
2023/10/01 04:06:30;;;;;;;8.77;4.22;;;;;;;;;;5049756;28;20064;-71
2023/10/01 04:09:00;;;;;;;8.32;4.50;;;;;;;;;;5043577;28;20140;-72
2023/10/01 04:14:10;;;;;;;8.45;4.53;;;;;;;;;;5049932;28;20433;-72
2023/10/01 04:16:46;;;;;;;7.75;4.65;;;;;;;;;;5052731;28;20041;-71
2023/10/01 04:19:18;;;;;;;9.90;3.97;;;;;;;;;;5047092;28;20417;-71
2023/10/01 04:21:50;;;;;;;12.07;4.47;;;;;;;;;;5049491;28;20052;-72
2023/10/01 04:24:19;;;;;;;7.27;4.83;;;;;;;;;;5042544;28;20049;-71
2023/10/01 04:26:46;;;;;;;7.07;3.72;;;;;;;;;;5045939;28;20293;-72
2023/10/01 04:29:16;;;;;;;7.75;4.03;;;;;;;;;;5045106;28;20052;-71
2023/10/01 04:31:48;;;;;;;10.63;4.20;;;;;;;;;;5050610;28;20052;-72
2023/10/01 04:34:17;;;;;;;12.98;4.13;;;;;;;;;;5046048;28;20052;-71
2023/10/01 04:36:50;;;;;;;9.07;4.40;;;;;;;;;;5048526;28;20060;-72
2023/10/01 04:39:17;;;;;;;;;;;;;;;;;;5045117;28;20092;-72
2023/10/01 04:41:43;;;;;;;11.02;3.80;;;;;;;;;;5046243;28;20023;-71
2023/10/01 04:44:13;;;;;;;6.25;4.05;;;;;;;;;;5049665;28;21181;-72
2023/10/01 04:46:41;;;;;;;7.05;4.32;;;;;;;;;;5047755;28;20168;-71
2023/10/01 04:51:54;;;;;;;5.80;4.05;;;;;;;;;;5049330;28;20049;-71
2023/10/01 04:54:21;;;;;;;7.53;4.28;;;;;;;;;;5050063;28;20052;-71
2023/10/01 04:56:49;;;;;;;9.00;3.38;;;;;;;;;;5047879;28;20116;-71
2023/10/01 04:59:16;;;;;;;7.60;3.97;;;;;;;;;;5050847;28;20053;-73
2023/10/01 05:01:43;;;;;;;10.98;3.97;;;;;;;;;;5049136;28;20041;-72
2023/10/01 05:04:14;;;;;;;6.15;3.65;;;;;;;;;;5054842;28;20044;-72
2023/10/01 05:06:43;;;;;;;8.80;3.92;;;;;;;;;;5049065;28;20063;-72
2023/10/01 05:09:14;;;;;;;8.77;3.85;;;;;;;;;;5041339;28;20052;-71
2023/10/01 05:11:42;;;;;;;7.68;4.25;;;;;;;;;;5049071;28;20051;-72
2023/10/01 05:14:11;;;;;;;7.80;4.03;;;;;;;;;;5050385;28;20056;-72
2023/10/01 05:16:39;;;;;;;10.02;4.13;;;;;;;;;;5051633;28;20496;-72
2023/10/01 05:19:10;;;;;;;8.13;3.90;;;;;;;;;;5044935;28;20041;-71
2023/10/01 05:21:46;;;;;;;6.93;4.25;;;;;;;;;;5055207;28;20049;-72
2023/10/01 05:24:31;;;;;;;5.30;3.90;;;;;;;;;;5053131;28;20493;-72
2023/10/01 05:27:00;;;;;;;9.05;4.30;;;;;;;;;;5049148;28;20045;-72
2023/10/01 05:29:26;;;;;;;5.43;4.28;;;;;;;;;;5056275;28;20049;-72
2023/10/01 05:31:55;;;;;;;7.03;3.63;;;;;;;;;;5055848;28;20045;-72
2023/10/01 05:34:22;;;;;;;9.27;4.45;;;;;;;;;;5047847;28;20049;-72
2023/10/01 05:36:52;;;;;;;7.80;3.95;;;;;;;;;;5044467;28;20079;-72
2023/10/01 05:39:23;;;;;;;7.15;4.32;;;;;;;;;;5048279;28;20045;-71
2023/10/01 05:41:51;;;;;;;6.35;4.10;;;;;;;;;;5044378;28;20076;-72
2023/10/01 05:44:18;;;;;;;6.53;4.03;;;;;;;;;;5042557;28;20052;-71
2023/10/01 05:46:46;;;;;;;8.38;4.28;;;;;;;;;;5051364;28;20541;-72
2023/10/01 05:49:12;;;;;;;7.00;4.20;;;;;;;;;;5055660;28;20098;-71
2023/10/01 05:51:45;;;;;;;4.15;3.47;;;;;;;;;;5048492;28;20049;-72
2023/10/01 05:54:18;;;;;;;4.40;3.58;;;;;;;;;;5050836;28;20072;-73
2023/10/01 05:56:48;;;;;;;4.82;2.80;;;;;;;;;;5047542;28;20110;-71
2023/10/01 05:59:15;;;;;;;4.85;3.30;;;;;;;;;;5051102;28;20077;-72
2023/10/01 06:01:43;;;;;;;4.18;3.20;;;;;;;;;;5052434;28;20049;-72
2023/10/01 06:04:12;;;;;;;5.75;3.53;;;;;;;;;;5048001;28;20045;-72
2023/10/01 06:06:42;;;;;;;5.63;3.70;;;;;;;;;;5047607;28;20045;-72
2023/10/01 06:09:14;;;;;;;6.45;3.53;;;;;;;;;;5047047;28;20049;-72
2023/10/01 06:11:42;;;;;;;9.52;3.90;;;;;;;;;;5044260;28;20507;-72
2023/10/01 06:14:29;;;;;;;5.85;3.90;;;;;;;;;;5049860;28;20079;-72
2023/10/01 06:17:00;;;;;;;7.43;4.30;;;;;;;;;;5044122;28;20041;-73
2023/10/01 06:19:26;;;;;;;4.65;3.95;;;;;;;;;;5056834;28;20491;-72
2023/10/01 06:21:54;;;;;;;7.95;3.50;;;;;;;;;;5046647;28;20083;-72
2023/10/01 06:24:21;;;;;;;7.45;3.70;;;;;;;;;;5048661;28;20091;-72
2023/10/01 06:26:50;;;;;;;5.32;3.28;;;;;;;;;;5048894;28;20056;-73
2023/10/01 06:29:19;;;;;;;18.25;3.47;;;;;;;;;;5044414;28;20053;-72
2023/10/01 06:31:52;;;;;;;7.47;3.45;;;;;;;;;;5049479;28;20049;-73
2023/10/01 06:34:21;;;;;;;5.32;3.50;;;;;;;;;;5038266;28;20103;-72
2023/10/01 06:36:50;;;;;;;4.25;3.45;;;;;;;;;;5045671;28;20056;-72
2023/10/01 06:39:20;;;;;;;8.07;3.33;;;;;;;;;;5050068;28;20072;-72
2023/10/01 06:41:48;;;;;;;6.15;3.40;;;;;;;;;;5051922;28;20466;-72
2023/10/01 06:44:15;;;;;;;11.18;3.47;;;;;;;;;;5048156;28;20128;-72
2023/10/01 06:46:44;;;;;;;7.10;3.90;;;;;;;;;;5047100;28;20060;-72
2023/10/01 06:49:10;;;;;;;5.53;3.50;;;;;;;;;;5050646;28;20081;-72
2023/10/01 06:51:43;;;;;;;17.27;3.88;;;;;;;;;;5044467;28;20472;-72
2023/10/01 06:54:10;;;;;;;4.90;3.72;;;;;;;;;;5045711;28;20072;-72
2023/10/01 06:56:43;;;;;;;7.50;3.00;;;;;;;;;;5051132;28;20048;-72
2023/10/01 06:59:17;;;;;;;7.28;3.60;;;;;;;;;;5056583;28;20136;-71
2023/10/01 07:01:49;;;;;;;5.78;3.30;;;;;;;;;;5045348;28;20394;-72
2023/10/01 07:04:18;;;;;;;4.03;3.22;;;;;;;;;;5044275;28;20124;-71
2023/10/01 07:06:46;;;;;;;4.35;3.22;;;;;;;;;;5049757;28;20497;-72
2023/10/01 07:09:27;;;;;;;4.40;3.00;;;;;;;;;;5047204;28;20099;-72
2023/10/01 07:11:56;;;;;;;3.67;2.53;;;;;;;;;;5049588;28;20045;-72
2023/10/01 07:14:31;;;;;;;4.20;3.17;;;;;;;;;;5049307;28;20507;-72
2023/10/01 07:17:00;;;;;;;3.40;2.80;;;;;;;;;;5048734;28;20560;-74
2023/10/01 07:19:27;;;;;;;5.80;3.15;;;;;;;;;;5046993;28;20044;-72
2023/10/01 07:21:57;;;;;;;4.10;2.85;;;;;;;;;;5045189;28;20074;-71
2023/10/01 07:24:27;;;;;;;3.70;2.60;;;;;;;;;;5051157;28;20056;-71
2023/10/01 07:27:03;;;;;;;4.13;2.78;;;;;;;;;;5042091;28;20052;-72
2023/10/01 07:29:30;;;;;;;3.20;2.70;;;;;;;;;;5038396;28;20505;-72
2023/10/01 07:32:00;;;;;;;2.75;2.15;;;;;;;;;;5047448;28;20048;-72
2023/10/01 07:34:26;;;;;;;3.35;2.55;;;;;;;;;;5054056;28;20496;-72
2023/10/01 07:36:54;;;;;;;2.78;2.35;;;;;;;;;;5046318;28;20044;-72
2023/10/01 07:39:21;;;;;;;3.40;2.65;;;;;;;;;;5047725;28;20049;-72
2023/10/01 07:41:48;;;;;;;4.82;3.08;;;;;;;;;;5048969;28;20109;-71
2023/10/01 07:44:15;;;;;;;4.13;2.85;;;;;;;;;;5053965;28;20094;-72
2023/10/01 07:46:42;;;;;;;4.35;3.10;;;;;;;;;;5052497;28;20049;-73
2023/10/01 07:49:10;;;;;;;5.20;3.53;;;;;;;;;;5062999;28;20045;-72
2023/10/01 07:51:38;;;;;;;5.28;3.42;;;;;;;;;;5048774;28;20104;-72
2023/10/01 07:54:10;;;;;;;4.78;3.50;;;;;;;;;;5050805;28;20047;-72
2023/10/01 07:56:39;;;;;;;5.25;3.35;;;;;;;;;;5043889;28;20048;-72
2023/10/01 07:59:28;;;;;;;5.72;3.45;;;;;;;;;;5043013;28;20042;-72
2023/10/01 08:02:08;;;;;;;6.90;3.53;;;;;;;;;;5048601;28;20056;-72
2023/10/01 08:04:57;;;;;;;4.47;3.35;;;;;;;;;;5042374;28;20088;-72
2023/10/01 08:07:30;;;;;;;4.78;3.22;;;;;;;;;;5044808;28;20059;-72
2023/10/01 08:09:57;;;;;;;;;;;;;;;;;;5044169;28;20057;-72
2023/10/01 08:12:33;;;;;;;4.28;3.00;;;;;;;;;;5046372;28;20182;-72
2023/10/01 08:15:29;;;;;;;4.78;3.10;;;;;;;;;;5043701;28;20515;-72
2023/10/01 08:17:55;;;;;;;4.55;2.90;;;;;;;;;;5046094;28;20046;-72
2023/10/01 08:20:30;;;;;;;5.18;2.80;;;;;;;;;;5054250;28;20042;-73
2023/10/01 08:23:22;;;;;;;4.68;3.00;;;;;;;;;;5042780;28;20493;-72
2023/10/01 08:25:51;;;;;;;4.00;2.85;;;;;;;;;;5046408;28;20048;-72
2023/10/01 08:28:26;;;;;;;4.35;2.55;;;;;;;;;;5050608;28;20115;-72
2023/10/01 08:31:02;;;;;;;4.22;2.78;;;;;;;;;;5044968;28;20049;-72
2023/10/01 08:33:32;;;;;;;4.55;3.20;;;;;;;;;;5039506;28;20472;-73
2023/10/01 08:36:12;;;;;;;3.97;2.97;;;;;;;;;;5040671;28;20060;-72
2023/10/01 08:38:38;;;;;;;5.15;3.00;;;;;;;;;;5047710;28;20044;-72
2023/10/01 08:41:06;;;;;;;4.63;3.40;;;;;;;;;;5050796;28;20550;-71
2023/10/01 08:43:34;;;;;;;4.20;2.88;;;;;;;;;;5051914;28;20061;-71
2023/10/01 08:46:13;;;;;;;3.60;2.50;;;;;;;;;;5050711;28;20044;-72
2023/10/01 08:48:42;;;;;;;4.05;2.67;;;;;;;;;;5049634;28;20132;-72
2023/10/01 08:51:12;;;;;;;3.55;2.80;;;;;;;;;;5051836;28;20500;-71
2023/10/01 08:53:41;;;;;;;6.22;3.05;;;;;;;;;;5049295;28;20060;-72
2023/10/01 08:56:13;;;;;;;4.72;3.10;;;;;;;;;;5047822;28;20099;-72
2023/10/01 08:58:48;;;;;;;3.90;3.40;;;;;;;;;;5047198;28;20077;-72
2023/10/01 09:01:19;;;;;;;5.90;3.60;;;;;;;;;;5046447;28;20049;-72
2023/10/01 09:03:48;;;;;;;5.13;3.50;;;;;;;;;;5058568;28;20060;-72
2023/10/01 09:06:27;;;;;;;7.05;3.80;;;;;;;;;;5044722;28;20044;-72
2023/10/01 09:08:55;;;;;;;5.05;3.42;;;;;;;;;;5050528;28;20429;-71
2023/10/01 09:11:42;;;;;;;7.10;3.92;;;;;;;;;;5050360;28;20052;-71
2023/10/01 09:14:18;;;;;;;7.28;4.22;;;;;;;;;;5053690;28;20077;-72
2023/10/01 09:16:46;;;;;;;5.20;3.70;;;;;;;;;;5044730;28;20094;-72
2023/10/01 09:19:35;;;;;;;5.85;4.25;;;;;;;;;;5042766;28;20045;-72
2023/10/01 09:22:15;;;;;;;6.38;4.30;;;;;;;;;;5043131;28;20049;-71
2023/10/01 09:24:43;;;;;;;4.88;3.72;;;;;;;;;;5047448;28;20436;-71
2023/10/01 09:27:18;;;;;;;7.18;4.80;;;;;;;;;;5050194;28;20095;-72
2023/10/01 09:29:46;;;;;;;5.80;4.03;;;;;;;;;;5041791;28;20184;-72
2023/10/01 09:32:13;;;;;;;6.53;4.20;;;;;;;;;;5045826;28;20050;-71
2023/10/01 09:34:47;;;;;;;7.70;4.57;;;;;;;;;;5043026;28;20073;-72
2023/10/01 09:37:33;;;;;;;6.88;4.55;;;;;;;;;;5044609;28;20045;-72
2023/10/01 09:40:04;;;;;;;9.75;4.80;;;;;;;;;;5041929;28;20048;-72
2023/10/01 09:42:44;;;;;;;9.65;4.82;;;;;;;;;;5036862;28;20424;-72
2023/10/01 09:45:26;;;;;;;9.57;5.72;;;;;;;;;;5042060;28;20438;-71
2023/10/01 09:48:04;;;;;;;8.60;5.30;;;;;;;;;;5042940;28;20041;-72
2023/10/01 09:50:39;;;;;;;10.90;5.20;;;;;;;;;;5043099;28;20048;-72
2023/10/01 09:53:12;;;;;;;7.47;4.90;;;;;;;;;;5040907;28;20394;-72
2023/10/01 09:55:47;;;;;;;9.93;5.50;;;;;;;;;;5048245;28;20488;-72
2023/10/01 09:58:24;;;;;;;9.63;5.60;;;;;;;;;;5049619;28;20072;-72
2023/10/01 10:00:51;;;;;;;7.97;4.40;;;;;;;;;;5042899;28;20508;-72
2023/10/01 10:03:20;;;;;;;7.40;5.07;;;;;;;;;;5039984;28;20045;-72
2023/10/01 10:05:47;;;;;;;8.73;4.63;;;;;;;;;;5040644;28;20056;-72
2023/10/01 10:08:20;;;;;;;8.45;4.97;;;;;;;;;;5040785;28;20138;-72
2023/10/01 10:10:49;;;;;;;;;;;;;;;;;;5038997;28;20132;-72
2023/10/01 10:13:45;;;;;;;7.95;3.80;;;;;;;;;;5051560;28;19975;-72
2023/10/01 10:16:34;;;;;;;7.75;4.18;;;;;;;;;;5038929;28;20068;-72
2023/10/01 10:19:13;;;;;;;7.82;4.18;;;;;;;;;;5051311;28;20055;-71
2023/10/01 10:22:11;;;;;;;6.68;4.00;;;;;;;;;;5038250;28;20045;-72
2023/10/01 10:24:45;;;;;;;6.50;4.05;;;;;;;;;;5043453;28;20412;-72
2023/10/01 10:27:17;;;;;;;9.73;4.72;;;;;;;;;;5043986;28;20556;-72
2023/10/01 10:30:15;;;;;;;7.82;4.15;;;;;;;;;;5047209;28;20048;-72
2023/10/01 10:33:39;;;;;;;7.10;4.00;;;;;;;;;;5040155;28;20406;-72
2023/10/01 10:36:27;;;;;;;;;;;;;;;;;;5046230;28;20049;-71
2023/10/01 10:38:54;;;;;;;10.07;4.70;;;;;;;;;;5043681;28;19960;-72
2023/10/01 10:41:25;;;;;;;10.70;5.07;;;;;;;;;;5042865;28;20408;-72
2023/10/01 10:44:07;;;;;;;8.10;4.25;;;;;;;;;;5040821;28;20060;-71
2023/10/01 10:47:02;;;;;;;8.90;4.60;;;;;;;;;;5043998;28;20103;-71
2023/10/01 10:49:50;;;;;;;8.52;4.63;;;;;;;;;;5046196;28;20049;-72
2023/10/01 10:52:31;;;;;;;9.60;4.50;;;;;;;;;;5043757;28;20045;-72
2023/10/01 10:55:15;;;;;;;11.23;5.13;;;;;;;;;;5045290;28;20056;-72
2023/10/01 10:57:48;;;;;;;8.55;4.53;;;;;;;;;;5039242;28;20493;-72
2023/10/01 11:00:23;;;;;;;;;;;;;;;;;;5039917;28;20539;-72
2023/10/01 11:02:55;;;;;;;9.55;4.20;;;;;;;;;;5046555;28;20265;-72
2023/10/01 11:05:21;;;;;;;10.25;5.00;;;;;;;;;;5038988;28;20482;-72
2023/10/01 11:07:58;;;;;;;8.70;4.38;;;;;;;;;;5038675;28;20045;-72
2023/10/01 11:10:27;;;;;;;8.98;4.50;;;;;;;;;;5040649;28;20504;-72
2023/10/01 11:12:55;;;;;;;8.10;4.32;;;;;;;;;;5042223;28;20053;-72
2023/10/01 11:15:23;;;;;;;9.82;4.75;;;;;;;;;;5043586;28;20048;-72
2023/10/01 11:17:59;;;;;;;9.00;4.47;;;;;;;;;;5043804;28;20049;-72
2023/10/01 11:20:32;;;;;;;9.43;4.53;;;;;;;;;;5045078;28;20045;-71
2023/10/01 11:22:59;;;;;;;8.98;4.38;;;;;;;;;;5045279;28;20056;-72
2023/10/01 11:25:26;;;;;;;8.45;4.28;;;;;;;;;;5039893;28;20042;-72
2023/10/01 11:27:53;;;;;;;7.03;4.07;;;;;;;;;;5036056;28;20048;-71
2023/10/01 11:30:24;;;;;;;7.85;4.53;;;;;;;;;;5045232;28;20501;-72
2023/10/01 11:35:59;;;;;;;9.13;4.70;;;;;;;;;;5030398;28;20132;-72
2023/10/01 11:38:26;;;;;;;9.52;4.63;;;;;;;;;;5038419;28;20052;-72
2023/10/01 11:41:10;;;;;;;10.68;5.20;;;;;;;;;;5042095;28;20045;-72
2023/10/01 11:43:38;;;;;;;10.60;5.18;;;;;;;;;;5039387;28;20089;-71
2023/10/01 11:46:20;;;;;;;10.48;4.82;;;;;;;;;;5050435;28;20045;-72
2023/10/01 11:48:57;;;;;;;10.07;4.90;;;;;;;;;;5044234;28;20088;-72
2023/10/01 11:51:45;;;;;;;9.73;4.95;;;;;;;;;;5040351;28;20492;-72
2023/10/01 11:54:13;;;;;;;8.77;4.50;;;;;;;;;;5037241;28;20049;-72
2023/10/01 11:56:42;;;;;;;10.30;5.45;;;;;;;;;;5039482;28;20525;-72
2023/10/01 11:59:11;;;;;;;12.60;5.80;;;;;;;;;;5042366;28;20041;-72
2023/10/01 12:01:47;;;;;;;16.05;5.13;;;;;;;;;;5045821;28;20051;-72
2023/10/01 12:04:21;;;;;;;10.70;5.50;;;;;;;;;;5042121;28;20045;-72
2023/10/01 12:06:49;;;;;;;12.55;4.88;;;;;;;;;;5045156;28;20049;-72
2023/10/01 12:09:18;;;;;;;12.32;5.32;;;;;;;;;;5049672;28;20049;-72
2023/10/01 12:12:02;;;;;;;12.43;5.47;;;;;;;;;;5043142;28;20081;-73
2023/10/01 12:14:28;;;;;;;11.13;5.28;;;;;;;;;;5042201;28;20045;-73
2023/10/01 12:17:00;;;;;;;14.65;5.40;;;;;;;;;;5058630;28;20045;-72
2023/10/01 12:19:27;;;;;;;12.50;5.45;;;;;;;;;;5040403;28;20049;-72
2023/10/01 12:22:09;;;;;;;12.48;5.72;;;;;;;;;;5042844;28;20045;-73
2023/10/01 12:24:40;;;;;;;10.25;4.70;;;;;;;;;;5043641;28;20053;-73
2023/10/01 12:27:10;;;;;;;12.38;5.68;;;;;;;;;;5044988;28;20060;-72
2023/10/01 12:29:42;;;;;;;11.40;4.70;;;;;;;;;;5048772;28;20123;-72
2023/10/01 12:32:12;;;;;;;9.90;4.95;;;;;;;;;;5048391;28;20056;-72
2023/10/01 12:34:39;;;;;;;8.98;4.78;;;;;;;;;;5040650;28;20049;-72
2023/10/01 12:37:07;;;;;;;12.30;5.38;;;;;;;;;;5041634;28;20445;-73
2023/10/01 12:39:34;;;;;;;9.88;5.00;;;;;;;;;;5042108;28;20555;-72
2023/10/01 12:42:04;;;;;;;12.77;5.50;;;;;;;;;;5042666;28;20131;-72
2023/10/01 12:44:31;;;;;;;10.45;4.72;;;;;;;;;;5050450;28;20053;-72
2023/10/01 12:47:01;;;;;;;10.93;5.00;;;;;;;;;;5052859;28;20489;-73
2023/10/01 12:49:32;;;;;;;10.95;5.15;;;;;;;;;;5038687;28;20049;-73
2023/10/01 12:51:58;;;;;;;10.40;5.00;;;;;;;;;;5043082;28;20111;-72
2023/10/01 12:54:25;;;;;;;12.18;5.20;;;;;;;;;;5041535;28;20394;-73
2023/10/01 12:57:09;;;;;;;12.13;5.10;;;;;;;;;;5039871;28;20055;-72
2023/10/01 12:59:39;;;;;;;10.18;5.05;;;;;;;;;;5045189;28;20054;-73
2023/10/01 13:02:20;;;;;;;12.48;5.65;;;;;;;;;;5044525;28;20064;-73
2023/10/01 13:04:49;;;;;;;10.83;4.97;;;;;;;;;;5041157;28;20055;-73
2023/10/01 13:07:27;;;;;;;12.57;4.75;;;;;;;;;;5047156;28;20045;-73
2023/10/01 13:09:53;;;;;;;11.35;5.63;;;;;;;;;;5039525;28;20046;-72
2023/10/01 13:12:24;;;;;;;11.15;5.38;;;;;;;;;;5041489;28;20066;-73
2023/10/01 13:17:35;;;;;;;10.53;5.27;;;;;;;;;;5039834;28;20271;-73
2023/10/01 13:20:18;;;;;;;12.10;5.72;;;;;;;;;;5035340;28;20306;-73
2023/10/01 13:22:48;;;;;;;11.98;5.55;;;;;;;;;;5044159;28;20059;-70
2023/10/01 13:25:19;;;;;;;12.80;6.30;;;;;;;;;;5042950;28;20544;-71
2023/10/01 13:27:46;;;;;;;11.18;6.40;;;;;;;;;;5043032;28;20045;-71
2023/10/01 13:30:20;;;;;;;10.45;6.20;;;;;;;;;;5039766;28;20076;-71
2023/10/01 13:33:10;;;;;;;9.88;6.05;;;;;;;;;;5042370;28;20045;-71
2023/10/01 13:35:49;;;;;;;11.88;6.80;;;;;;;;;;5047393;28;20048;-71
2023/10/01 13:38:26;;;;;;;11.25;6.70;;;;;;;;;;5049367;28;20493;-71
2023/10/01 14:08:45;;;;;;;10.73;6.80;;;;;;;;;;5020470;28;20038;-71
2023/10/01 14:11:12;;;;;;;12.45;6.78;;;;;;;;;;5035762;28;20432;-72
2023/10/01 14:13:41;;;;;;;11.77;6.80;;;;;;;;;;5039197;28;20045;-71
2023/10/01 14:16:18;;;;;;;12.00;6.80;;;;;;;;;;5041363;28;20133;-70
2023/10/01 14:18:54;;;;;;;10.35;7.20;;;;;;;;;;5041735;28;20045;-71
2023/10/01 14:21:22;;;;;;;12.00;6.80;;;;;;;;;;5035372;28;20049;-71
2023/10/01 14:23:51;;;;;;;12.77;6.65;;;;;;;;;;5046337;28;20424;-71
2023/10/01 14:26:21;;;;;;;12.35;6.75;;;;;;;;;;5032614;28;20516;-71
2023/10/01 14:28:49;;;;;;;11.18;6.53;;;;;;;;;;5048224;28;20140;-71
2023/10/01 14:31:41;;;;;;;11.88;6.65;;;;;;;;;;5047365;28;20056;-71
2023/10/01 14:34:03;;;;;;;10.90;7.07;;;;;;;;;;5040571;28;20437;-71
2023/10/01 14:36:30;;;;;;;11.40;6.70;;;;;;;;;;5039068;28;20514;-71
2023/10/01 14:38:58;;;;;;;13.40;7.22;;;;;;;;;;5042454;28;20049;-71
2023/10/01 14:41:29;;;;;;;11.63;6.80;;;;;;;;;;5041976;28;20056;-71
2023/10/01 14:43:56;;;;;;;12.43;7.00;;;;;;;;;;5046582;28;20056;-71
2023/10/01 14:46:30;;;;;;;13.18;7.03;;;;;;;;;;5041913;28;20059;-71
2023/10/01 14:49:04;;;;;;;13.95;7.45;;;;;;;;;;5038728;28;20049;-71
2023/10/01 14:51:32;;;;;;;11.77;7.30;;;;;;;;;;5043919;28;20095;-70
2023/10/01 14:54:00;;;;;;;13.52;7.10;;;;;;;;;;5044466;28;20560;-71
2023/10/01 14:56:31;;;;;;;11.70;7.10;;;;;;;;;;5050325;28;20071;-70
2023/10/01 14:58:57;;;;;;;11.43;7.22;;;;;;;;;;5047986;28;20045;-72
2023/10/01 15:01:24;;;;;;;14.70;7.28;;;;;;;;;;5043313;28;20045;-72
2023/10/01 15:03:54;;;;;;;12.98;7.40;;;;;;;;;;5054152;28;20048;-70
2023/10/01 15:06:21;;;;;;;14.02;7.40;;;;;;;;;;5037213;28;20095;-72
2023/10/01 15:08:48;;;;;;;12.73;6.57;;;;;;;;;;5053779;28;20156;-72
2023/10/01 15:11:16;;;;;;;11.55;6.40;;;;;;;;;;5050094;28;20056;-71
2023/10/01 15:13:43;;;;;;;13.18;7.47;;;;;;;;;;5046367;28;20056;-72
2023/10/01 15:16:13;;;;;;;12.65;6.68;;;;;;;;;;5042713;28;20049;-72
2023/10/01 15:18:41;;;;;;;12.40;7.28;;;;;;;;;;5041545;28;20448;-71
2023/10/01 15:21:17;;;;;;;13.30;7.25;;;;;;;;;;5056128;28;20053;-70
2023/10/01 15:23:45;;;;;;;11.20;6.60;;;;;;;;;;5044034;28;20048;-72
2023/10/01 15:26:13;;;;;;;13.63;6.60;;;;;;;;;;5044231;28;20063;-70
2023/10/01 15:28:50;;;;;;;11.73;6.72;;;;;;;;;;5043279;28;20045;-72
2023/10/01 15:31:30;;;;;;;13.45;6.43;;;;;;;;;;5039686;28;20053;-72
2023/10/01 15:34:01;;;;;;;13.27;6.32;;;;;;;;;;5051790;28;20064;-71
2023/10/01 15:36:46;;;;;;;13.38;7.00;;;;;;;;;;5041196;28;20417;-71
2023/10/01 15:42:12;;;;;;;12.32;6.57;;;;;;;;;;5021410;28;20041;-70
2023/10/01 15:44:44;;;;;;;13.25;7.00;;;;;;;;;;5041735;28;20045;-71
2023/10/01 15:47:32;;;;;;;13.38;6.70;;;;;;;;;;5046838;28;20128;-71
2023/10/01 15:50:05;;;;;;;11.02;6.20;;;;;;;;;;5034303;28;20052;-70
2023/10/01 15:52:37;;;;;;;12.25;6.22;;;;;;;;;;5034276;28;20049;-73